Time;durP1;ratioP1;P1;durP2;ratioP2;P2;SDS_P1;SDS_P2;PMS_P1;PMS_P2;Temp;Humidity;BMP_temperature;BMP_pressure;BME280_temperature;BME280_humidity;BME280_pressure;Samples;Min_cycle;Max_cycle;Signal;HPM_P1;HPM_P2
2024/01/27 00:02:56;;;;;;;8.60;2.50;;;;;;;3.73;85.01;97306.46;104643;1272;103564;-88
2024/01/27 00:05:41;;;;;;;3.70;2.40;;;;;;;3.77;85.05;97311.14;104725;1271;102448;-90
2024/01/27 00:08:42;;;;;;;4.70;2.70;;;;;;;3.81;85.06;97323.84;104659;1261;100229;-89
2024/01/27 00:11:32;;;;;;;4.50;2.70;;;;;;;3.84;85.10;97332.42;104621;1256;98047;-88
2024/01/27 00:14:25;;;;;;;4.60;2.70;;;;;;;3.84;85.14;97337.03;104759;1267;99768;-87
2024/01/27 00:17:27;;;;;;;3.90;2.20;;;;;;;3.85;85.24;97343.64;104785;1262;103306;-77
2024/01/27 00:19:58;;;;;;;2.90;2.00;;;;;;;3.85;85.48;97338.70;104617;1262;101723;-77
2024/01/27 00:23:05;;;;;;;4.30;2.20;;;;;;;3.88;85.26;97341.41;104583;1257;101378;-79
2024/01/27 00:26:04;;;;;;;3.60;1.70;;;;;;;3.90;85.24;97340.77;104211;1270;97976;-78
2024/01/27 00:28:44;;;;;;;2.90;1.80;;;;;;;3.89;85.27;97358.13;104226;1268;99794;-78
2024/01/27 00:31:35;;;;;;;3.40;1.40;;;;;;;3.88;85.27;97392.24;104290;1281;102581;-75
2024/01/27 00:34:29;;;;;;;1.90;1.20;;;;;;;3.85;85.45;97411.89;104237;1267;101449;-77
2024/01/27 00:37:20;;;;;;;4.40;1.30;;;;;;;3.78;85.75;97424.94;103851;1272;100061;-76
2024/01/27 00:40:28;;;;;;;1.40;0.90;;;;;;;3.68;85.46;97440.67;103804;1273;98042;-77
2024/01/27 00:43:25;;;;;;;3.30;1.10;;;;;;;3.56;84.97;97447.80;103902;1274;98979;-77
2024/01/27 00:46:34;;;;;;;1.10;0.70;;;;;;;3.48;84.81;97456.48;103860;1283;102361;-85
2024/01/27 00:49:42;;;;;;;2.80;1.20;;;;;;;3.43;84.56;97464.08;103932;1274;101565;-84
2024/01/27 00:52:50;;;;;;;1.90;1.30;;;;;;;3.37;84.39;97483.59;103873;1272;99129;-87
2024/01/27 00:55:58;;;;;;;3.90;1.30;;;;;;;3.31;84.48;97509.09;103891;1274;97968;-88
2024/01/27 00:59:06;;;;;;;2.00;1.10;;;;;;;3.18;84.61;97518.83;104264;1266;98435;-87
2024/01/27 01:01:55;;;;;;;3.10;1.00;;;;;;;3.04;84.50;97518.27;104245;1277;103625;-76
2024/01/27 01:04:49;;;;;;;9.00;1.40;;;;;;;2.96;84.54;97514.73;104361;1267;101432;-75
2024/01/27 01:07:37;;;;;;;2.70;1.60;;;;;;;2.91;84.54;97514.89;104285;1261;99568;-75
2024/01/27 01:10:28;;;;;;;3.80;1.30;;;;;;;2.92;84.51;97529.16;104624;1270;98884;-76
2024/01/27 01:13:36;;;;;;;3.40;1.60;;;;;;;2.92;84.47;97538.98;104718;1263;99253;-75
2024/01/27 01:16:36;;;;;;;3.70;1.00;;;;;;;2.86;84.41;97540.84;104721;1270;103776;-75
2024/01/27 01:19:24;;;;;;;2.70;1.00;;;;;;;2.81;84.52;97544.60;104660;1263;101438;-75
2024/01/27 01:22:32;;;;;;;5.10;1.50;;;;;;;2.78;84.67;97552.15;104637;1263;100166;-76
2024/01/27 01:25:20;;;;;;;2.90;1.40;;;;;;;2.78;84.54;97561.91;104539;1270;99281;-76
2024/01/27 01:28:28;;;;;;;3.10;1.00;;;;;;;2.78;84.63;97556.66;104709;1262;98425;-75
2024/01/27 01:30:59;;;;;;;6.40;1.40;;;;;;;2.72;84.25;97559.97;104658;1280;103182;-77
2024/01/27 01:33:43;;;;;;;2.90;1.20;;;;;;;2.67;84.02;97564.89;104682;1263;100709;-89
2024/01/27 01:36:40;;;;;;;9.40;1.60;;;;;;;2.64;83.88;97570.16;104705;1261;100038;-79
2024/01/27 01:39:31;;;;;;;2.70;1.40;;;;;;;2.64;83.83;97573.00;104675;1262;97953;-78
2024/01/27 01:42:02;;;;;;;8.80;1.70;;;;;;;2.67;83.83;97581.41;104754;1260;97833;-77
2024/01/27 01:44:39;;;;;;;5.30;1.30;;;;;;;2.68;83.59;97586.09;104687;1263;103743;-77
2024/01/27 01:47:11;;;;;;;8.60;1.90;;;;;;;2.66;83.30;97590.45;104716;1263;101930;-86
2024/01/27 01:49:44;;;;;;;5.30;1.90;;;;;;;2.65;83.26;97600.52;104696;1271;100157;-85
2024/01/27 01:52:19;;;;;;;9.10;2.20;;;;;;;2.68;83.14;97603.17;104620;1279;99240;-75
2024/01/27 01:55:17;;;;;;;5.30;1.50;;;;;;;2.70;82.92;97603.46;104696;1268;99765;-78
2024/01/27 01:57:52;;;;;;;8.30;1.90;;;;;;;2.72;82.58;97594.61;104676;1261;103270;-74
2024/01/27 02:00:29;;;;;;;14.20;1.80;;;;;;;2.69;82.27;97596.09;104784;1260;100030;-75
2024/01/27 02:03:37;;;;;;;7.80;1.80;;;;;;;2.67;82.21;97600.60;104722;1271;98630;-76
2024/01/27 02:06:10;;;;;;;6.80;1.90;;;;;;;2.68;81.95;97596.21;104652;1270;97907;-77
2024/01/27 02:08:43;;;;;;;7.80;1.60;;;;;;;2.71;81.77;97600.97;104631;1270;98547;-76
2024/01/27 02:11:31;;;;;;;5.40;1.70;;;;;;;2.71;81.69;97588.64;104681;1270;103517;-75
2024/01/27 02:14:27;;;;;;;10.70;2.60;;;;;;;2.72;81.52;97589.45;104724;1260;101519;-74
2024/01/27 02:16:58;;;;;;;7.00;2.30;;;;;;;2.75;81.35;97591.11;104666;1270;99826;-76
2024/01/27 02:19:32;;;;;;;11.50;2.40;;;;;;;2.77;81.05;97583.55;104624;1270;98786;-78
2024/01/27 02:22:05;;;;;;;11.70;2.90;;;;;;;2.79;80.96;97593.27;104716;1260;99239;-75
2024/01/27 02:25:14;;;;;;;8.70;2.30;;;;;;;2.80;80.92;97596.89;104683;1264;103611;-76
2024/01/27 02:28:05;;;;;;;11.60;3.00;;;;;;;2.82;80.91;97585.04;104650;1263;101247;-75
2024/01/27 02:30:33;;;;;;;7.80;2.20;;;;;;;2.82;80.92;97578.05;104674;1270;99770;-86
2024/01/27 02:33:14;;;;;;;9.60;2.50;;;;;;;2.84;80.94;97580.02;104754;1263;97939;-88
2024/01/27 02:36:23;;;;;;;7.70;2.90;;;;;;;2.83;80.73;97579.35;104665;1270;98424;-87
2024/01/27 02:39:11;;;;;;;14.50;3.20;;;;;;;2.80;80.68;97577.73;104671;1260;104939;-89
2024/01/27 02:41:49;;;;;;;6.50;2.10;;;;;;;2.77;80.62;97567.20;104755;1270;100483;-88
2024/01/27 02:44:20;;;;;;;7.80;2.60;;;;;;;2.74;80.59;97566.81;104682;1270;99908;-86
2024/01/27 02:46:50;;;;;;;11.90;2.10;;;;;;;2.72;80.53;97571.79;104623;1261;98152;-75
2024/01/27 02:49:26;;;;;;;8.30;1.90;;;;;;;2.72;80.72;97577.70;104693;1270;98507;-75
2024/01/27 02:52:34;;;;;;;6.10;2.50;;;;;;;2.72;80.68;97582.15;104745;1261;103862;-77
2024/01/27 02:55:13;;;;;;;10.90;2.20;;;;;;;2.70;80.67;97582.70;104652;1262;101202;-74
2024/01/27 02:58:01;;;;;;;6.90;2.00;;;;;;;2.68;80.58;97577.36;104608;1275;98802;-75
2024/01/27 03:00:38;;;;;;;10.00;1.90;;;;;;;2.68;80.14;97584.15;104636;1262;98878;-75
2024/01/27 03:03:26;;;;;;;11.40;1.90;;;;;;;2.67;79.95;97590.16;104708;1263;99246;-74
2024/01/27 03:06:24;;;;;;;8.10;1.70;;;;;;;2.67;79.86;97597.43;104680;1270;103832;-75
2024/01/27 03:09:22;;;;;;;9.80;2.20;;;;;;;2.66;79.57;97605.37;104620;1271;101106;-76
2024/01/27 03:12:27;;;;;;;6.60;1.80;;;;;;;2.63;79.01;97610.66;104566;1257;99622;-76
2024/01/27 03:15:35;;;;;;;7.90;2.00;;;;;;;2.61;79.05;97611.40;104618;1270;99157;-75
2024/01/27 03:18:32;;;;;;;11.80;2.70;;;;;;;2.61;78.84;97617.74;104734;1260;99117;-75
2024/01/27 03:21:40;;;;;;;10.50;2.00;;;;;;;2.60;78.76;97622.32;104583;1261;103224;-75
2024/01/27 03:24:36;;;;;;;12.50;2.60;;;;;;;2.60;78.86;97628.69;104655;1260;101400;-75
2024/01/27 03:27:34;;;;;;;7.80;2.50;;;;;;;2.60;78.17;97629.45;104647;1271;100148;-83
2024/01/27 03:30:11;;;;;;;9.50;1.90;;;;;;;2.60;77.97;97635.52;104646;1274;97925;-76
2024/01/27 03:33:18;;;;;;;12.40;2.10;;;;;;;2.59;77.68;97628.08;104761;1261;99243;-78
2024/01/27 03:35:49;;;;;;;8.40;2.00;;;;;;;2.60;77.22;97634.35;104653;1267;102720;-74
2024/01/27 03:38:17;;;;;;;11.50;1.90;;;;;;;2.61;76.96;97630.77;104761;1260;101470;-74
2024/01/27 03:40:59;;;;;;;8.90;2.40;;;;;;;2.62;76.82;97629.61;104723;1258;99090;-76
2024/01/27 03:43:34;;;;;;;7.90;1.60;;;;;;;2.63;76.74;97626.29;104655;1270;97942;-75
2024/01/27 03:46:25;;;;;;;12.50;2.20;;;;;;;2.64;76.65;97638.29;104850;1257;98351;-75
2024/01/27 03:48:53;;;;;;;13.20;3.00;;;;;;;2.65;76.54;97634.29;104673;1260;103155;-75
2024/01/27 03:51:21;;;;;;;5.40;1.70;;;;;;;2.66;76.46;97636.48;104724;1269;101427;-75
2024/01/27 03:53:48;;;;;;;11.70;2.10;;;;;;;2.65;76.10;97639.95;104623;1260;99988;-75
2024/01/27 03:56:16;;;;;;;8.00;2.20;;;;;;;2.63;75.64;97640.84;104678;1270;97925;-75
2024/01/27 03:58:44;;;;;;;10.20;2.00;;;;;;;2.63;75.66;97641.74;104638;1272;98514;-75
2024/01/27 04:01:11;;;;;;;4.10;1.40;;;;;;;2.63;75.60;97640.37;104617;1261;103240;-75
2024/01/27 04:03:39;;;;;;;9.80;1.70;;;;;;;2.63;75.44;97640.34;104647;1257;101213;-75
2024/01/27 04:06:07;;;;;;;9.00;2.00;;;;;;;2.61;75.40;97646.92;104550;1257;99597;-75
2024/01/27 04:08:34;;;;;;;7.30;1.80;;;;;;;2.53;75.26;97651.63;104730;1270;99238;-75
2024/01/27 04:11:02;;;;;;;8.70;2.30;;;;;;;2.51;75.39;97658.58;104711;1268;98421;-75
2024/01/27 04:13:30;;;;;;;11.80;2.40;;;;;;;2.49;75.35;97665.30;104693;1270;103593;-75
2024/01/27 04:16:01;;;;;;;5.50;1.80;;;;;;;2.40;75.76;97662.55;104729;1260;99167;-75
2024/01/27 04:18:28;;;;;;;7.20;1.50;;;;;;;2.31;76.16;97659.30;104693;1261;100115;-75
2024/01/27 04:20:57;;;;;;;12.10;2.80;;;;;;;2.23;76.48;97660.64;104603;1260;99247;-75
2024/01/27 04:23:24;;;;;;;5.90;1.80;;;;;;;2.16;76.69;97664.58;104558;1256;99253;-75
2024/01/27 04:25:52;;;;;;;8.20;1.80;;;;;;;2.13;76.92;97673.93;104624;1257;103432;-73
2024/01/27 04:28:20;;;;;;;7.90;1.80;;;;;;;2.13;77.08;97673.03;104628;1261;101531;-73
2024/01/27 04:30:47;;;;;;;11.00;2.10;;;;;;;2.13;77.29;97672.52;104616;1261;99938;-75
2024/01/27 04:33:15;;;;;;;6.50;2.00;;;;;;;2.14;77.58;97679.73;104623;1256;97971;-75
2024/01/27 04:35:43;;;;;;;10.10;2.60;;;;;;;2.13;77.70;97683.13;104634;1270;98319;-75
2024/01/27 04:38:10;;;;;;;11.00;2.10;;;;;;;2.10;77.85;97683.11;104633;1256;104042;-75
2024/01/27 04:40:38;;;;;;;13.60;2.20;;;;;;;2.04;78.03;97682.64;104717;1261;100640;-75
2024/01/27 04:43:06;;;;;;;10.00;2.10;;;;;;;2.03;78.15;97680.63;104629;1256;98714;-75
2024/01/27 04:45:33;;;;;;;11.50;2.00;;;;;;;2.01;78.26;97677.95;104607;1262;99132;-74
2024/01/27 04:48:01;;;;;;;11.90;2.20;;;;;;;2.03;78.32;97678.36;104635;1270;99125;-75
2024/01/27 04:50:29;;;;;;;7.20;2.70;;;;;;;2.03;78.40;97685.76;104679;1261;103286;-75
2024/01/27 04:52:57;;;;;;;12.90;2.90;;;;;;;2.01;78.53;97686.63;104686;1258;101416;-74
2024/01/27 04:55:24;;;;;;;7.50;2.40;;;;;;;1.99;78.65;97689.52;104676;1261;100012;-74
2024/01/27 04:57:53;;;;;;;9.20;2.40;;;;;;;1.96;78.64;97693.58;104709;1260;97940;-74
2024/01/27 05:00:21;;;;;;;7.00;2.10;;;;;;;1.95;78.76;97698.86;104704;1261;98692;-75
2024/01/27 05:02:48;;;;;;;9.00;3.10;;;;;;;1.93;78.76;97705.79;104648;1277;103168;-75
2024/01/27 05:05:16;;;;;;;10.30;2.00;;;;;;;1.93;79.02;97707.88;104762;1260;101101;-75
2024/01/27 05:07:44;;;;;;;9.60;2.30;;;;;;;1.94;79.11;97709.59;104647;1261;99916;-74
2024/01/27 05:10:12;;;;;;;7.00;2.30;;;;;;;1.94;79.13;97713.46;104701;1261;97997;-75
2024/01/27 05:12:40;;;;;;;13.60;3.40;;;;;;;1.95;79.05;97711.98;104630;1263;98626;-74
2024/01/27 05:15:08;;;;;;;9.90;2.70;;;;;;;1.96;78.97;97717.84;104725;1261;103249;-75
2024/01/27 05:17:36;;;;;;;9.40;2.30;;;;;;;1.97;78.99;97715.88;104283;1258;212958;-88
2024/01/27 05:20:04;;;;;;;13.20;2.60;;;;;;;1.94;78.73;97715.96;104694;1260;98588;-88
2024/01/27 05:22:32;;;;;;;9.00;2.30;;;;;;;1.96;78.75;97720.77;104692;1261;98014;-75
2024/01/27 05:24:59;;;;;;;10.90;2.80;;;;;;;1.98;78.58;97721.94;104757;1270;98450;-74
2024/01/27 05:27:27;;;;;;;14.80;2.70;;;;;;;2.00;78.24;97721.42;104735;1270;103384;-74
2024/01/27 05:29:55;;;;;;;10.70;2.80;;;;;;;2.02;78.20;97723.32;104630;1256;101255;-75
2024/01/27 05:32:22;;;;;;;11.30;2.80;;;;;;;2.04;77.94;97729.73;104707;1261;99914;-86
2024/01/27 05:34:50;;;;;;;11.80;2.90;;;;;;;2.04;77.72;97731.46;104656;1260;98482;-88
2024/01/27 05:37:18;;;;;;;10.30;2.30;;;;;;;2.04;77.42;97733.92;104611;1261;99743;-87
2024/01/27 05:39:46;;;;;;;15.00;2.50;;;;;;;2.08;77.28;97742.30;104825;1256;102199;-88
2024/01/27 05:42:13;;;;;;;14.50;3.70;;;;;;;2.09;77.06;97738.42;104701;1257;101783;-74
2024/01/27 05:44:41;;;;;;;13.00;2.70;;;;;;;2.10;77.09;97740.60;104692;1268;100077;-73
2024/01/27 05:47:10;;;;;;;9.20;2.60;;;;;;;2.11;77.16;97728.44;104645;1257;98025;-87
2024/01/27 05:49:38;;;;;;;15.00;2.60;;;;;;;2.11;77.02;97720.45;104745;1261;99259;-89
2024/01/27 05:52:06;;;;;;;15.10;2.40;;;;;;;2.11;76.89;97714.59;104569;1257;102648;-88
2024/01/27 05:54:34;;;;;;;12.90;2.70;;;;;;;2.11;76.65;97715.12;104701;1261;101992;-87
2024/01/27 05:57:03;;;;;;;15.40;3.20;;;;;;;2.10;76.53;97718.77;104657;1273;99888;-88
2024/01/27 05:59:31;;;;;;;11.00;3.10;;;;;;;2.11;76.58;97724.06;104681;1260;98021;-89
2024/01/27 06:01:58;;;;;;;12.30;2.30;;;;;;;2.12;76.61;97726.21;104704;1261;98410;-73
2024/01/27 06:04:26;;;;;;;11.70;2.50;;;;;;;2.13;76.55;97736.55;104696;1260;103755;-73
2024/01/27 06:06:53;;;;;;;10.50;2.70;;;;;;;2.10;76.61;97747.73;104787;1260;101782;-74
2024/01/27 06:09:21;;;;;;;10.00;2.30;;;;;;;2.03;76.72;97749.89;104725;1257;99913;-73
2024/01/27 06:11:49;;;;;;;17.00;3.40;;;;;;;1.97;77.00;97751.20;104595;1256;99196;-73
2024/01/27 06:14:17;;;;;;;16.00;3.20;;;;;;;1.93;77.24;97757.80;104728;1270;98392;-73
2024/01/27 06:16:44;;;;;;;13.90;2.90;;;;;;;1.92;77.24;97759.82;104722;1271;102115;-75
2024/01/27 06:19:12;;;;;;;16.70;4.00;;;;;;;1.92;77.39;97766.43;104661;1261;101291;-75
2024/01/27 06:21:40;;;;;;;10.00;3.00;;;;;;;1.91;77.41;97771.62;104726;1260;99509;-75
2024/01/27 06:24:07;;;;;;;12.40;2.90;;;;;;;1.91;77.43;97766.69;104686;1255;98010;-75
2024/01/27 06:26:35;;;;;;;14.60;3.40;;;;;;;1.91;77.42;97765.94;104659;1257;98831;-75
2024/01/27 06:29:03;;;;;;;18.00;4.20;;;;;;;1.92;77.31;97761.59;104703;1261;103627;-75
2024/01/27 06:31:30;;;;;;;15.50;4.10;;;;;;;1.92;77.35;97761.92;104671;1274;100093;-73
2024/01/27 06:33:58;;;;;;;17.30;5.70;;;;;;;1.92;77.21;97761.05;104683;1256;99844;-74
2024/01/27 06:36:27;;;;;;;14.40;4.80;;;;;;;1.93;77.14;97765.05;104682;1276;97992;-73
2024/01/27 06:38:54;;;;;;;12.40;4.30;;;;;;;1.94;77.04;97768.27;104750;1262;98411;-74
2024/01/27 06:41:22;;;;;;;17.10;4.20;;;;;;;1.95;76.47;97779.53;104648;1260;103527;-75
2024/01/27 06:43:50;;;;;;;22.40;3.60;;;;;;;1.98;76.44;97786.73;104682;1260;101581;-75
2024/01/27 06:46:18;;;;;;;9.80;2.90;;;;;;;2.01;76.48;97794.40;104667;1261;99980;-73
2024/01/27 06:48:45;;;;;;;11.10;3.10;;;;;;;2.03;76.27;97793.70;104668;1263;97977;-73
2024/01/27 06:51:13;;;;;;;17.30;3.50;;;;;;;2.05;76.05;97795.30;104654;1256;98341;-74
2024/01/27 06:53:41;;;;;;;15.60;5.10;;;;;;;2.06;75.56;97794.64;104606;1262;102513;-73
2024/01/27 06:56:09;;;;;;;12.30;3.10;;;;;;;2.08;75.59;97793.73;104629;1260;108955;-73
2024/01/27 06:58:37;;;;;;;16.00;3.60;;;;;;;2.10;75.44;97795.83;104634;1274;100606;-74
2024/01/27 07:01:04;;;;;;;18.70;4.80;;;;;;;2.11;75.22;97798.04;104759;1261;97894;-73
2024/01/27 07:03:32;;;;;;;14.50;4.90;;;;;;;2.12;75.17;97799.95;104737;1260;98427;-73
2024/01/27 07:06:01;;;;;;;21.00;5.60;;;;;;;2.13;74.99;97801.96;104947;1279;102551;-73
2024/01/27 07:08:29;;;;;;;11.80;3.50;;;;;;;2.14;74.90;97808.27;104709;1272;101322;-74
2024/01/27 07:10:57;;;;;;;14.90;3.50;;;;;;;2.14;74.49;97813.26;104780;1260;98786;-73
2024/01/27 07:13:26;;;;;;;12.00;3.80;;;;;;;2.15;74.26;97809.24;104735;1272;99231;-73
2024/01/27 07:15:54;;;;;;;10.40;2.90;;;;;;;2.15;74.19;97804.78;104748;1256;98513;-75
2024/01/27 07:18:22;;;;;;;13.90;2.90;;;;;;;2.17;73.99;97805.30;104753;1256;103387;-75
2024/01/27 07:20:49;;;;;;;18.20;4.90;;;;;;;2.19;73.91;97804.23;104642;1260;101439;-75
2024/01/27 07:23:18;;;;;;;18.70;4.80;;;;;;;2.21;73.39;97796.23;104646;1260;99244;-74
2024/01/27 07:25:45;;;;;;;18.10;3.60;;;;;;;2.21;73.35;97797.05;104572;1264;97889;-75
2024/01/27 07:28:15;;;;;;;11.40;2.90;;;;;;;2.22;73.37;97798.42;104725;1260;97926;-76
2024/01/27 07:30:43;;;;;;;16.50;3.70;;;;;;;2.22;73.03;97808.52;104679;1261;103344;-75
2024/01/27 07:33:11;;;;;;;15.40;3.10;;;;;;;2.22;72.92;97800.05;104682;1261;100056;-74
2024/01/27 07:35:38;;;;;;;19.80;4.20;;;;;;;2.22;72.79;97796.77;104584;1261;99015;-75
2024/01/27 07:38:06;;;;;;;20.30;4.70;;;;;;;2.24;72.81;97796.28;104666;1268;97970;-75
2024/01/27 07:40:34;;;;;;;16.80;3.80;;;;;;;2.24;72.80;97795.92;104654;1256;98701;-75
2024/01/27 07:43:02;;;;;;;19.10;3.10;;;;;;;2.24;72.64;97805.14;104625;1273;103608;-75
2024/01/27 07:45:29;;;;;;;10.50;3.30;;;;;;;2.24;72.48;97804.41;104635;1256;101144;-75
2024/01/27 07:47:57;;;;;;;18.30;4.30;;;;;;;2.25;72.27;97804.33;104643;1270;99339;-73
2024/01/27 07:50:25;;;;;;;13.50;3.70;;;;;;;2.26;71.91;97804.77;104684;1261;97913;-75
2024/01/27 07:52:52;;;;;;;16.60;4.30;;;;;;;2.28;72.15;97802.10;104618;1256;98332;-73
2024/01/27 07:55:20;;;;;;;20.40;5.60;;;;;;;2.28;72.22;97809.19;104790;1260;103459;-73
2024/01/27 07:57:48;;;;;;;16.60;4.80;;;;;;;2.28;72.23;97810.27;104830;1257;100369;-75
2024/01/27 08:00:16;;;;;;;14.70;3.80;;;;;;;2.26;72.16;97807.74;105291;1256;99944;-75
2024/01/27 08:02:43;;;;;;;15.60;4.60;;;;;;;2.24;71.86;97811.90;104691;1263;99228;-75
2024/01/27 08:05:11;;;;;;;12.40;3.70;;;;;;;2.25;71.88;97806.69;104730;1260;98597;-75
2024/01/27 08:07:39;;;;;;;12.10;3.90;;;;;;;2.27;71.69;97811.55;104849;1261;103618;-74
2024/01/27 08:10:10;;;;;;;12.70;3.60;;;;;;;2.30;71.51;97811.48;104855;1261;100384;-75
2024/01/27 08:12:39;;;;;;;14.40;3.80;;;;;;;2.31;71.39;97809.91;104649;1260;100005;-75
2024/01/27 08:15:07;;;;;;;13.40;4.30;;;;;;;2.31;71.30;97806.38;104645;1260;99055;-75
2024/01/27 08:17:35;;;;;;;13.70;3.20;;;;;;;2.31;71.01;97810.27;104791;1269;98354;-75
2024/01/27 08:20:04;;;;;;;15.20;3.60;;;;;;;2.32;71.00;97807.15;104753;1260;103126;-75
2024/01/27 08:22:31;;;;;;;16.20;3.50;;;;;;;2.34;71.02;97805.44;104736;1270;101382;-75
2024/01/27 08:24:59;;;;;;;13.20;2.80;;;;;;;2.34;70.64;97803.61;104703;1256;99652;-75
2024/01/27 08:27:27;;;;;;;8.30;3.00;;;;;;;2.34;70.55;97800.27;104614;1260;97999;-75
2024/01/27 08:29:54;;;;;;;17.50;3.90;;;;;;;2.34;70.44;97806.11;104691;1271;98024;-75
2024/01/27 08:32:22;;;;;;;12.90;3.60;;;;;;;2.35;70.39;97811.89;104678;1257;110317;-73
2024/01/27 08:34:50;;;;;;;12.20;3.20;;;;;;;2.35;70.05;97810.40;104792;1260;100354;-73
2024/01/27 08:37:21;;;;;;;15.10;3.50;;;;;;;2.37;69.76;97810.79;104681;1256;99946;-73
2024/01/27 08:39:50;;;;;;;13.90;3.50;;;;;;;2.36;69.27;97807.17;104740;1261;97987;-73
2024/01/27 08:42:18;;;;;;;17.80;3.70;;;;;;;2.36;69.18;97810.11;104810;1257;99608;-74
2024/01/27 08:44:46;;;;;;;12.60;3.00;;;;;;;2.37;69.41;97812.86;104609;1261;103645;-73
2024/01/27 08:47:13;;;;;;;12.00;3.30;;;;;;;2.37;68.59;97816.66;104659;1260;99975;-87
2024/01/27 08:49:41;;;;;;;18.00;3.80;;;;;;;2.35;68.81;97815.05;104804;1260;99239;-90
2024/01/27 08:52:09;;;;;;;14.60;3.30;;;;;;;2.34;68.90;97821.70;104766;1270;97845;-89
2024/01/27 08:54:36;;;;;;;15.60;2.90;;;;;;;2.35;68.69;97822.55;104893;1256;98817;-75
2024/01/27 08:57:05;;;;;;;15.60;3.00;;;;;;;2.35;68.46;97823.94;104673;1279;103105;-75
2024/01/27 08:59:32;;;;;;;12.80;3.30;;;;;;;2.36;68.44;97825.23;104712;1265;101372;-74
2024/01/27 09:02:00;;;;;;;16.20;3.70;;;;;;;2.36;68.31;97827.73;104601;1256;99000;-75
2024/01/27 09:04:28;;;;;;;12.80;3.60;;;;;;;2.37;68.10;97831.59;104703;1264;97912;-75
2024/01/27 09:06:56;;;;;;;15.10;3.50;;;;;;;2.37;68.14;97827.44;104661;1256;98344;-75
2024/01/27 09:09:24;;;;;;;18.10;4.10;;;;;;;2.38;67.96;97821.55;104661;1260;102166;-74
2024/01/27 09:11:51;;;;;;;15.00;3.60;;;;;;;2.38;67.69;97826.88;104619;1257;100605;-76
2024/01/27 09:14:19;;;;;;;15.20;3.50;;;;;;;2.38;67.88;97837.70;104563;1257;99998;-75
2024/01/27 09:16:47;;;;;;;14.60;3.10;;;;;;;2.37;67.91;97841.16;104660;1256;97951;-75
2024/01/27 09:19:14;;;;;;;16.30;3.80;;;;;;;2.34;68.17;97838.05;104629;1263;99101;-75
2024/01/27 09:21:42;;;;;;;14.80;2.80;;;;;;;2.28;68.57;97844.02;104643;1260;103603;-75
2024/01/27 09:24:10;;;;;;;13.80;3.00;;;;;;;2.22;68.98;97848.44;104691;1260;101301;-74
2024/01/27 09:26:37;;;;;;;15.40;3.30;;;;;;;2.17;69.40;97856.24;104613;1261;99953;-75
2024/01/27 09:29:05;;;;;;;10.00;3.40;;;;;;;2.13;69.83;97855.75;104612;1258;97928;-75
2024/01/27 09:31:33;;;;;;;14.40;3.60;;;;;;;2.11;70.12;97860.39;104667;1261;98415;-75
2024/01/27 09:34:01;;;;;;;15.40;3.60;;;;;;;2.12;70.45;97862.54;104701;1261;103486;-75
2024/01/27 09:36:29;;;;;;;12.10;3.10;;;;;;;2.11;70.63;97861.79;104643;1260;101875;-75
2024/01/27 09:38:56;;;;;;;8.70;2.80;;;;;;;2.09;70.87;97858.83;104605;1261;98947;-75
2024/01/27 09:41:24;;;;;;;18.60;4.30;;;;;;;2.07;71.07;97862.58;104621;1261;98022;-76
2024/01/27 09:43:55;;;;;;;18.40;4.70;;;;;;;2.07;71.33;97863.20;104668;1262;99065;-74
2024/01/27 09:46:22;;;;;;;15.10;5.70;;;;;;;2.06;71.32;97868.44;104712;1261;102562;-75
2024/01/27 09:48:50;;;;;;;15.60;5.50;;;;;;;2.06;71.67;97877.73;104625;1270;100142;-75
2024/01/27 09:51:18;;;;;;;11.40;4.50;;;;;;;2.00;72.18;97885.96;104676;1262;99330;-75
2024/01/27 09:53:46;;;;;;;11.50;4.30;;;;;;;1.87;72.63;97882.05;104705;1260;99237;-74
2024/01/27 09:56:18;;;;;;;16.10;4.90;;;;;;;1.79;72.99;97890.56;104698;1257;98331;-75
2024/01/27 09:58:47;;;;;;;17.50;6.20;;;;;;;1.76;73.34;97886.78;104650;1260;103438;-75
2024/01/27 10:01:17;;;;;;;13.60;4.40;;;;;;;1.70;73.61;97886.69;104709;1257;101325;-87
2024/01/27 10:03:44;;;;;;;18.40;6.70;;;;;;;1.64;73.94;97885.33;104673;1275;99032;-86
2024/01/27 10:06:14;;;;;;;17.90;6.70;;;;;;;1.60;74.29;97892.95;104663;1260;97943;-87
2024/01/27 10:08:42;;;;;;;14.60;4.60;;;;;;;1.54;74.30;97891.18;104815;1257;98951;-87
2024/01/27 10:11:11;;;;;;;16.90;5.80;;;;;;;1.50;74.50;97893.70;104713;1262;102534;-72
2024/01/27 10:13:38;;;;;;;16.70;5.70;;;;;;;1.50;74.73;97890.16;104641;1260;108108;-73
2024/01/27 10:16:08;;;;;;;13.50;5.90;;;;;;;1.50;75.17;97891.23;104656;1260;100313;-75
2024/01/27 10:19:01;;;;;;;13.30;5.70;;;;;;;1.49;75.25;97891.83;104605;1257;97892;-76
2024/01/27 10:21:30;;;;;;;19.20;7.00;;;;;;;1.47;75.32;97888.63;104772;1256;98344;-75
2024/01/27 10:23:58;;;;;;;17.70;7.30;;;;;;;1.47;75.40;97887.79;104722;1261;103561;-76
2024/01/27 10:26:26;;;;;;;15.50;5.90;;;;;;;1.46;75.51;97891.27;104737;1261;100295;-76
2024/01/27 10:28:57;;;;;;;13.50;5.20;;;;;;;1.40;75.71;97890.22;104660;1258;99839;-76
2024/01/27 10:31:29;;;;;;;12.50;4.10;;;;;;;1.37;75.87;97887.25;104399;1264;98007;-76
2024/01/27 10:33:58;;;;;;;14.40;4.80;;;;;;;1.38;76.05;97883.98;104724;1261;97905;-76
2024/01/27 10:36:27;;;;;;;12.90;5.20;;;;;;;1.39;76.06;97878.41;104663;1273;102422;-76
2024/01/27 10:38:55;;;;;;;12.30;5.40;;;;;;;1.38;76.04;97882.88;104781;1257;101424;-76
2024/01/27 10:41:26;;;;;;;14.10;5.00;;;;;;;1.40;76.32;97886.63;104651;1275;100083;-76
2024/01/27 10:43:57;;;;;;;11.80;4.30;;;;;;;1.38;76.22;97881.17;104756;1263;99131;-76
2024/01/27 10:46:27;;;;;;;14.10;5.90;;;;;;;1.35;76.41;97878.56;104710;1262;98385;-74
2024/01/27 10:48:54;;;;;;;13.50;5.50;;;;;;;1.33;76.53;97887.01;104765;1257;102703;-74
2024/01/27 10:51:33;;;;;;;17.20;7.40;;;;;;;1.31;76.64;97885.70;104665;1271;101484;-74
2024/01/27 10:54:07;;;;;;;20.90;8.70;;;;;;;1.32;76.92;97880.83;104694;1262;100003;-74
2024/01/27 10:56:35;;;;;;;13.20;6.20;;;;;;;1.31;76.84;97886.96;104599;1256;97910;-74
2024/01/27 10:59:06;;;;;;;11.60;5.20;;;;;;;1.27;77.03;97895.17;104665;1256;99334;-73
2024/01/27 11:01:36;;;;;;;16.00;5.60;;;;;;;1.23;77.19;97889.86;104839;1272;103294;-76
2024/01/27 11:04:06;;;;;;;18.80;6.60;;;;;;;1.19;77.50;97890.92;104958;1258;101505;-76
2024/01/27 11:06:36;;;;;;;10.40;5.10;;;;;;;1.14;77.47;97888.34;104822;1260;100205;-76
2024/01/27 11:09:04;;;;;;;9.00;4.60;;;;;;;1.12;77.60;97887.67;104802;1256;98821;-76
2024/01/27 11:11:33;;;;;;;11.80;5.50;;;;;;;1.11;77.99;97892.54;104750;1274;99123;-76
2024/01/27 11:14:01;;;;;;;12.90;5.10;;;;;;;1.12;78.07;97884.83;104762;1261;103621;-77
2024/01/27 11:16:29;;;;;;;15.60;5.10;;;;;;;1.13;77.96;97889.01;104664;1260;101374;-76
2024/01/27 11:18:57;;;;;;;16.20;5.20;;;;;;;1.14;78.07;97884.88;104765;1261;100121;-77
2024/01/27 11:21:25;;;;;;;8.80;4.10;;;;;;;1.16;78.00;97889.80;104698;1261;97827;-77
2024/01/27 11:23:52;;;;;;;16.60;6.10;;;;;;;1.20;77.90;97891.06;104671;1256;98319;-77
2024/01/27 11:26:22;;;;;;;16.40;5.10;;;;;;;1.22;77.90;97889.92;104796;1260;102429;-77
2024/01/27 11:28:53;;;;;;;14.00;4.70;;;;;;;1.25;77.85;97885.92;104777;1258;99349;-77
2024/01/27 11:31:21;;;;;;;12.00;4.50;;;;;;;1.28;77.93;97889.38;105032;1257;98402;-74
2024/01/27 11:33:52;;;;;;;8.00;3.40;;;;;;;1.30;77.80;97889.77;104602;1260;97912;-74
2024/01/27 11:36:23;;;;;;;16.30;5.40;;;;;;;1.30;77.67;97883.89;104739;1256;98492;-74
2024/01/27 11:38:52;;;;;;;10.60;4.10;;;;;;;1.32;77.73;97888.60;104705;1261;103300;-74
2024/01/27 11:41:27;;;;;;;11.00;4.20;;;;;;;1.35;77.77;97892.27;104593;1257;101579;-74
2024/01/27 11:44:01;;;;;;;8.80;3.70;;;;;;;1.36;77.83;97891.31;104687;1261;100063;-74
2024/01/27 11:46:29;;;;;;;11.70;4.30;;;;;;;1.33;78.00;97886.81;104715;1256;97973;-75
2024/01/27 11:48:57;;;;;;;6.20;3.20;;;;;;;1.32;77.81;97888.07;104696;1256;98370;-74
2024/01/27 11:51:25;;;;;;;10.00;4.50;;;;;;;1.36;77.72;97890.19;104626;1279;103572;-74
2024/01/27 11:53:53;;;;;;;13.50;5.50;;;;;;;1.40;77.76;97895.73;104648;1261;100057;-74
2024/01/27 11:56:22;;;;;;;14.60;5.30;;;;;;;1.42;77.81;97900.64;104624;1261;99154;-74
2024/01/27 11:58:50;;;;;;;17.90;6.40;;;;;;;1.44;77.75;97899.27;104745;1271;98380;-74